Campanya meteocatpedra

Dades EMA Lleida - la Bordeta

?
?
Resum diari 21:00 TU
Dades diàries de l'estació meteorològica
Temperatura mitjana 26.2 °C
Temperatura màxima 33.7 °C 15:58 TU
Temperatura mínima 19.2 °C 4:51 TU
Humitat relativa mitjana 65%
Precipitació acumulada 0.0 mm
Ratxa màxima del vent (2 m) 13.0 km/h - 258º 11:21 TU

El tram horari està expressat en Temps Universal (TU). Cal sumar una hora en horari d'hivern i dues en horari d'estiu per passar a l'hora oficial.

Lleida - la Bordeta

Metadades estació meteorol´gica
Municipi Lleida
Comarca Segrià
Altitud 165 m
Data alta 24.07.2013
Estat actual Operativa
Dades de període
Període
TU
TM
°C
TX
°C
TN
°C
HRM
%
PPT
mm
VVM (2 m)
km/h
DVM (2 m)
graus
VVX (2 m)
km/h
00:00 - 00:30 21.3 21.6 20.7 82 0.0 1.1 40 4.7
00:30 - 01:00 21.0 21.3 20.8 84 0.0 0.7 36 2.9
01:00 - 01:30 20.9 21.1 20.7 84 0.0 1.1 37 5.0
01:30 - 02:00 20.3 20.7 20.0 85 0.0 0.4 34 3.2
02:00 - 02:30 20.2 20.4 19.9 84 0.0 0.4 40 2.9
02:30 - 03:00 19.6 19.9 19.4 85 0.0 0.0 212 1.4
03:00 - 03:30 19.7 19.8 19.5 85 0.0 0.0 64 1.1
03:30 - 04:00 19.9 20.1 19.7 83 0.0 0.4 22 3.2
04:00 - 04:30 19.8 19.9 19.6 82 0.0 0.0 43 1.1
04:30 - 05:00 19.3 19.6 19.2 84 0.0 0.0 200 1.4
05:00 - 05:30 19.4 19.5 19.3 86 0.0 0.4 15 2.5
05:30 - 06:00 20.0 20.8 19.5 84 0.0 0.0 0 0.0
06:00 - 06:30 21.1 21.4 20.8 77 0.0 0.4 53 2.2
06:30 - 07:00 21.7 22.7 21.3 75 0.0 0.4 35 2.9
07:00 - 07:30 23.5 23.9 22.9 67 0.0 1.4 11 5.4
07:30 - 08:00 24.7 25.2 23.9 64 0.0 1.8 28 5.0
08:00 - 08:30 24.9 25.8 24.3 70 0.0 1.8 270 5.8
08:30 - 09:00 25.4 25.7 25.2 71 0.0 2.9 272 8.3
09:00 - 09:30 25.8 26.2 25.4 71 0.0 2.9 261 10.4
09:30 - 10:00 26.3 27.2 25.7 70 0.0 3.6 280 10.8
10:00 - 10:30 27.4 28.1 26.8 66 0.0 2.5 236 8.3
10:30 - 11:00 28.0 28.9 27.2 64 0.0 3.6 260 12.2
11:00 - 11:30 28.4 28.9 27.5 62 0.0 3.6 275 13.0
11:30 - 12:00 29.1 29.9 28.7 59 0.0 3.2 277 10.4
12:00 - 12:30 29.9 30.9 29.3 55 0.0 3.2 292 10.4
12:30 - 13:00 30.6 31.1 30.2 54 0.0 3.6 280 11.2
13:00 - 13:30 31.3 31.8 30.6 52 0.0 3.2 284 12.2
13:30 - 14:00 31.7 32.4 31.0 50 0.0 3.6 241 10.4
14:00 - 14:30 32.3 32.8 31.8 47 0.0 3.2 267 12.6
14:30 - 15:00 32.6 33.3 31.9 45 0.0 2.9 274 9.0
15:00 - 15:30 32.6 33.4 31.7 46 0.0 2.9 290 10.8
15:30 - 16:00 32.7 33.7 31.6 45 0.0 2.9 264 8.3
16:00 - 16:30 33.2 33.7 32.8 43 0.0 3.6 259 9.0
16:30 - 17:00 33.0 33.4 32.8 41 0.0 3.6 304 10.8
17:00 - 17:30 33.2 33.4 32.9 39 0.0 2.5 265 9.4
17:30 - 18:00 32.4 32.9 32.2 43 0.0 1.8 268 6.1
18:00 - 18:30 31.4 32.1 30.8 45 0.0 1.4 286 6.1
18:30 - 19:00 30.0 30.8 28.4 49 0.0 0.4 310 4.3
19:00 - 19:30 28.1 28.7 27.4 56 0.0 0.4 188 5.0
19:30 - 20:00 26.9 27.3 26.4 61 0.0 0.0 183 2.9
20:00 - 20:30 27.5 27.8 27.0 61 0.0 0.7 189 3.2
20:30 - 21:00 25.6 26.8 24.6 68 0.0 0.0 239 1.1
21:00 - 21:30 24.5 24.7 24.0 72 0.0 0.0 60 1.1

Les dades en taronja només han passat un control de qualitat automàtic. Resta pendent la seva validació definitiva.